sensor_id;sensor_type;location;lat;lon;timestamp;temperature;humidity
27164;DHT22;14685;50.618;7.024;2023-09-12T00:10:35;25.90;99.90
27164;DHT22;14685;50.618;7.024;2023-09-12T00:13:04;25.90;99.90
27164;DHT22;14685;50.618;7.024;2023-09-12T00:15:32;25.80;99.90
27164;DHT22;14685;50.618;7.024;2023-09-12T00:17:59;25.80;99.90
27164;DHT22;14685;50.618;7.024;2023-09-12T00:20:27;25.80;99.90
27164;DHT22;14685;50.618;7.024;2023-09-12T00:22:54;25.80;99.90
27164;DHT22;14685;50.618;7.024;2023-09-12T00:27:49;25.70;99.90
27164;DHT22;14685;50.618;7.024;2023-09-12T00:30:16;25.70;99.90
27164;DHT22;14685;50.618;7.024;2023-09-12T00:37:48;25.60;99.90
27164;DHT22;14685;50.618;7.024;2023-09-12T00:42:44;25.50;99.90
27164;DHT22;14685;50.618;7.024;2023-09-12T00:45:13;25.50;99.90
27164;DHT22;14685;50.618;7.024;2023-09-12T00:47:41;25.50;99.90
27164;DHT22;14685;50.618;7.024;2023-09-12T00:50:08;25.50;99.90
27164;DHT22;14685;50.618;7.024;2023-09-12T00:52:36;25.40;99.90
27164;DHT22;14685;50.618;7.024;2023-09-12T00:55:05;25.40;99.90
27164;DHT22;14685;50.618;7.024;2023-09-12T00:57:34;25.40;99.90
27164;DHT22;14685;50.618;7.024;2023-09-12T01:00:05;25.40;99.90
27164;DHT22;14685;50.618;7.024;2023-09-12T01:02:41;25.40;99.90
27164;DHT22;14685;50.618;7.024;2023-09-12T01:05:09;25.40;99.90
27164;DHT22;14685;50.618;7.024;2023-09-12T01:07:38;25.30;99.90
27164;DHT22;14685;50.618;7.024;2023-09-12T01:10:06;25.30;99.90
27164;DHT22;14685;50.618;7.024;2023-09-12T01:12:34;25.30;99.90
27164;DHT22;14685;50.618;7.024;2023-09-12T01:15:02;25.30;99.90
27164;DHT22;14685;50.618;7.024;2023-09-12T01:17:34;25.30;99.90
27164;DHT22;14685;50.618;7.024;2023-09-12T01:20:05;25.30;99.90
27164;DHT22;14685;50.618;7.024;2023-09-12T01:26:05;25.30;99.90
27164;DHT22;14685;50.618;7.024;2023-09-12T01:28:41;25.30;99.90
27164;DHT22;14685;50.618;7.024;2023-09-12T01:31:10;25.30;99.90
27164;DHT22;14685;50.618;7.024;2023-09-12T01:33:39;25.30;99.90
27164;DHT22;14685;50.618;7.024;2023-09-12T01:36:09;25.20;99.90
27164;DHT22;14685;50.618;7.024;2023-09-12T01:38:37;25.30;99.90
27164;DHT22;14685;50.618;7.024;2023-09-12T01:41:05;25.40;99.90
27164;DHT22;14685;50.618;7.024;2023-09-12T01:43:33;25.20;99.90
27164;DHT22;14685;50.618;7.024;2023-09-12T01:46:02;25.20;99.90
27164;DHT22;14685;50.618;7.024;2023-09-12T01:48:33;25.20;99.90
27164;DHT22;14685;50.618;7.024;2023-09-12T01:53:30;25.00;99.90
27164;DHT22;14685;50.618;7.024;2023-09-12T01:56:02;25.00;99.90
27164;DHT22;14685;50.618;7.024;2023-09-12T01:58:30;24.90;99.90
27164;DHT22;14685;50.618;7.024;2023-09-12T02:00:58;24.90;99.90
27164;DHT22;14685;50.618;7.024;2023-09-12T02:03:26;24.80;99.90
27164;DHT22;14685;50.618;7.024;2023-09-12T02:05:53;24.80;99.90
27164;DHT22;14685;50.618;7.024;2023-09-12T02:10:47;24.80;99.90
27164;DHT22;14685;50.618;7.024;2023-09-12T02:13:15;24.80;99.90
27164;DHT22;14685;50.618;7.024;2023-09-12T02:15:45;24.70;99.90
27164;DHT22;14685;50.618;7.024;2023-09-12T02:18:12;24.70;99.90
27164;DHT22;14685;50.618;7.024;2023-09-12T02:20:42;24.70;99.90
27164;DHT22;14685;50.618;7.024;2023-09-12T02:23:12;24.60;99.90
27164;DHT22;14685;50.618;7.024;2023-09-12T02:25:41;24.70;99.90
27164;DHT22;14685;50.618;7.024;2023-09-12T02:28:09;24.80;99.90
27164;DHT22;14685;50.618;7.024;2023-09-12T02:30:41;24.60;99.90
27164;DHT22;14685;50.618;7.024;2023-09-12T02:33:08;24.60;99.90
27164;DHT22;14685;50.618;7.024;2023-09-12T02:35:37;24.60;99.90
27164;DHT22;14685;50.618;7.024;2023-09-12T02:38:07;24.50;99.90
27164;DHT22;14685;50.618;7.024;2023-09-12T02:40:36;24.50;99.90
27164;DHT22;14685;50.618;7.024;2023-09-12T02:43:08;24.50;99.90
27164;DHT22;14685;50.618;7.024;2023-09-12T02:45:37;24.50;99.90
27164;DHT22;14685;50.618;7.024;2023-09-12T02:50:35;24.50;99.90
27164;DHT22;14685;50.618;7.024;2023-09-12T02:53:04;24.50;99.90
27164;DHT22;14685;50.618;7.024;2023-09-12T02:55:32;24.50;99.90
27164;DHT22;14685;50.618;7.024;2023-09-12T03:00:28;24.50;99.90
27164;DHT22;14685;50.618;7.024;2023-09-12T03:02:56;24.50;99.90
27164;DHT22;14685;50.618;7.024;2023-09-12T03:05:23;24.50;99.90
27164;DHT22;14685;50.618;7.024;2023-09-12T03:07:51;24.50;99.90
27164;DHT22;14685;50.618;7.024;2023-09-12T03:12:46;24.20;99.90
27164;DHT22;14685;50.618;7.024;2023-09-12T03:15:14;24.20;99.90
27164;DHT22;14685;50.618;7.024;2023-09-12T03:17:41;24.20;99.90
27164;DHT22;14685;50.618;7.024;2023-09-12T03:20:12;24.30;99.90
27164;DHT22;14685;50.618;7.024;2023-09-12T03:25:06;24.10;99.90
27164;DHT22;14685;50.618;7.024;2023-09-12T03:27:34;24.20;99.90
27164;DHT22;14685;50.618;7.024;2023-09-12T03:30:04;24.20;99.90
27164;DHT22;14685;50.618;7.024;2023-09-12T03:32:31;24.20;99.90
27164;DHT22;14685;50.618;7.024;2023-09-12T03:34:58;24.40;99.90
27164;DHT22;14685;50.618;7.024;2023-09-12T03:37:25;24.30;99.90
27164;DHT22;14685;50.618;7.024;2023-09-12T03:54:42;24.10;99.90
27164;DHT22;14685;50.618;7.024;2023-09-12T03:57:09;24.00;99.90
27164;DHT22;14685;50.618;7.024;2023-09-12T03:59:36;24.00;99.90
27164;DHT22;14685;50.618;7.024;2023-09-12T04:02:03;24.00;99.90
27164;DHT22;14685;50.618;7.024;2023-09-12T04:04:31;24.00;99.90
27164;DHT22;14685;50.618;7.024;2023-09-12T04:06:58;24.00;99.90
27164;DHT22;14685;50.618;7.024;2023-09-12T04:09:25;24.00;99.90
27164;DHT22;14685;50.618;7.024;2023-09-12T04:11:52;23.90;99.90
27164;DHT22;14685;50.618;7.024;2023-09-12T04:14:21;23.90;99.90
27164;DHT22;14685;50.618;7.024;2023-09-12T04:16:48;23.90;99.90
27164;DHT22;14685;50.618;7.024;2023-09-12T04:19:16;23.90;99.90
27164;DHT22;14685;50.618;7.024;2023-09-12T04:21:44;23.90;99.90
27164;DHT22;14685;50.618;7.024;2023-09-12T04:24:11;23.90;99.90
27164;DHT22;14685;50.618;7.024;2023-09-12T04:26:38;23.90;99.90
27164;DHT22;14685;50.618;7.024;2023-09-12T04:29:05;23.90;99.90
27164;DHT22;14685;50.618;7.024;2023-09-12T04:31:33;23.90;99.90
27164;DHT22;14685;50.618;7.024;2023-09-12T04:34:00;24.00;99.90
27164;DHT22;14685;50.618;7.024;2023-09-12T04:36:27;24.00;99.90
27164;DHT22;14685;50.618;7.024;2023-09-12T04:38:54;24.00;99.90
27164;DHT22;14685;50.618;7.024;2023-09-12T04:41:21;24.00;99.90
27164;DHT22;14685;50.618;7.024;2023-09-12T04:43:48;24.00;99.90
27164;DHT22;14685;50.618;7.024;2023-09-12T04:46:15;23.90;99.90
27164;DHT22;14685;50.618;7.024;2023-09-12T04:48:42;23.80;99.90
27164;DHT22;14685;50.618;7.024;2023-09-12T04:51:13;23.70;99.90
27164;DHT22;14685;50.618;7.024;2023-09-12T04:53:40;23.70;99.90
27164;DHT22;14685;50.618;7.024;2023-09-12T04:56:07;23.70;99.90
27164;DHT22;14685;50.618;7.024;2023-09-12T04:58:36;23.70;99.90
27164;DHT22;14685;50.618;7.024;2023-09-12T05:01:04;23.80;99.90
27164;DHT22;14685;50.618;7.024;2023-09-12T05:03:31;23.60;99.90
27164;DHT22;14685;50.618;7.024;2023-09-12T05:06:00;23.60;99.90
27164;DHT22;14685;50.618;7.024;2023-09-12T05:10:55;23.70;99.90
27164;DHT22;14685;50.618;7.024;2023-09-12T05:13:23;23.60;99.90
27164;DHT22;14685;50.618;7.024;2023-09-12T05:15:52;23.60;99.90
27164;DHT22;14685;50.618;7.024;2023-09-12T05:18:19;23.50;99.90
27164;DHT22;14685;50.618;7.024;2023-09-12T05:20:47;23.50;99.90
27164;DHT22;14685;50.618;7.024;2023-09-12T05:23:14;23.40;99.90
27164;DHT22;14685;50.618;7.024;2023-09-12T05:25:41;23.50;99.90
27164;DHT22;14685;50.618;7.024;2023-09-12T05:28:08;23.40;99.90
27164;DHT22;14685;50.618;7.024;2023-09-12T05:30:35;23.40;99.90
27164;DHT22;14685;50.618;7.024;2023-09-12T05:33:02;23.50;99.90
27164;DHT22;14685;50.618;7.024;2023-09-12T05:35:30;23.40;99.90
27164;DHT22;14685;50.618;7.024;2023-09-12T05:37:57;23.50;99.90
27164;DHT22;14685;50.618;7.024;2023-09-12T05:40:26;23.50;99.90
27164;DHT22;14685;50.618;7.024;2023-09-12T05:42:53;23.60;99.90
27164;DHT22;14685;50.618;7.024;2023-09-12T05:45:20;23.60;99.90
27164;DHT22;14685;50.618;7.024;2023-09-12T05:47:49;23.60;99.90
27164;DHT22;14685;50.618;7.024;2023-09-12T05:50:20;23.70;99.90
27164;DHT22;14685;50.618;7.024;2023-09-12T05:52:47;23.70;99.90
27164;DHT22;14685;50.618;7.024;2023-09-12T05:55:14;23.70;99.90
27164;DHT22;14685;50.618;7.024;2023-09-12T05:57:42;23.70;99.90
27164;DHT22;14685;50.618;7.024;2023-09-12T06:00:11;23.70;99.90
27164;DHT22;14685;50.618;7.024;2023-09-12T06:02:41;23.70;99.90
27164;DHT22;14685;50.618;7.024;2023-09-12T06:05:12;23.70;99.90
27164;DHT22;14685;50.618;7.024;2023-09-12T06:07:41;23.70;99.90
27164;DHT22;14685;50.618;7.024;2023-09-12T06:10:08;23.70;99.90
27164;DHT22;14685;50.618;7.024;2023-09-12T06:12:35;23.70;99.90
27164;DHT22;14685;50.618;7.024;2023-09-12T06:15:06;23.70;99.90
27164;DHT22;14685;50.618;7.024;2023-09-12T06:17:35;23.70;99.90
27164;DHT22;14685;50.618;7.024;2023-09-12T06:20:08;23.80;99.90
27164;DHT22;14685;50.618;7.024;2023-09-12T06:22:40;23.80;99.90
27164;DHT22;14685;50.618;7.024;2023-09-12T06:25:07;23.80;99.90
27164;DHT22;14685;50.618;7.024;2023-09-12T06:27:34;24.00;99.90
27164;DHT22;14685;50.618;7.024;2023-09-12T06:30:01;24.10;99.90
27164;DHT22;14685;50.618;7.024;2023-09-12T06:32:30;24.20;99.90
27164;DHT22;14685;50.618;7.024;2023-09-12T06:34:58;24.40;99.90
27164;DHT22;14685;50.618;7.024;2023-09-12T06:37:26;24.30;99.90
27164;DHT22;14685;50.618;7.024;2023-09-12T06:39:53;24.30;99.90
27164;DHT22;14685;50.618;7.024;2023-09-12T06:42:21;24.30;99.90
27164;DHT22;14685;50.618;7.024;2023-09-12T06:44:48;24.40;99.90
27164;DHT22;14685;50.618;7.024;2023-09-12T06:47:16;24.30;99.90
27164;DHT22;14685;50.618;7.024;2023-09-12T06:49:43;24.40;99.90
27164;DHT22;14685;50.618;7.024;2023-09-12T06:52:16;25.70;99.90
27164;DHT22;14685;50.618;7.024;2023-09-12T06:54:44;24.50;99.90
27164;DHT22;14685;50.618;7.024;2023-09-12T07:04:38;24.90;99.90
27164;DHT22;14685;50.618;7.024;2023-09-12T07:07:05;25.00;99.90
27164;DHT22;14685;50.618;7.024;2023-09-12T07:09:33;24.80;99.90
27164;DHT22;14685;50.618;7.024;2023-09-12T07:12:02;24.80;99.90
27164;DHT22;14685;50.618;7.024;2023-09-12T07:14:29;24.80;99.90
27164;DHT22;14685;50.618;7.024;2023-09-12T07:16:59;24.80;99.90
27164;DHT22;14685;50.618;7.024;2023-09-12T07:19:27;24.70;99.90
27164;DHT22;14685;50.618;7.024;2023-09-12T07:21:58;24.70;99.90
27164;DHT22;14685;50.618;7.024;2023-09-12T07:24:26;24.70;99.90
27164;DHT22;14685;50.618;7.024;2023-09-12T07:26:54;24.80;99.90
27164;DHT22;14685;50.618;7.024;2023-09-12T07:29:24;24.80;99.90
27164;DHT22;14685;50.618;7.024;2023-09-12T07:31:54;24.80;99.90
27164;DHT22;14685;50.618;7.024;2023-09-12T07:34:24;25.00;99.90
27164;DHT22;14685;50.618;7.024;2023-09-12T07:39:20;25.10;99.90
27164;DHT22;14685;50.618;7.024;2023-09-12T07:41:47;25.10;99.90
27164;DHT22;14685;50.618;7.024;2023-09-12T07:44:16;25.10;99.90
27164;DHT22;14685;50.618;7.024;2023-09-12T07:46:43;25.10;99.90
27164;DHT22;14685;50.618;7.024;2023-09-12T07:49:10;25.10;99.90
27164;DHT22;14685;50.618;7.024;2023-09-12T07:51:38;25.00;99.90
27164;DHT22;14685;50.618;7.024;2023-09-12T07:54:05;25.10;99.90
27164;DHT22;14685;50.618;7.024;2023-09-12T07:56:33;25.00;99.90
27164;DHT22;14685;50.618;7.024;2023-09-12T07:59:00;25.10;99.90
27164;DHT22;14685;50.618;7.024;2023-09-12T08:01:32;25.10;99.90
27164;DHT22;14685;50.618;7.024;2023-09-12T08:04:01;25.10;99.90
27164;DHT22;14685;50.618;7.024;2023-09-12T08:06:28;25.10;99.90
27164;DHT22;14685;50.618;7.024;2023-09-12T08:09:01;25.10;99.90
27164;DHT22;14685;50.618;7.024;2023-09-12T08:11:32;25.40;99.90
27164;DHT22;14685;50.618;7.024;2023-09-12T08:14:02;25.30;99.90
27164;DHT22;14685;50.618;7.024;2023-09-12T08:16:29;25.30;99.90
27164;DHT22;14685;50.618;7.024;2023-09-12T08:18:58;25.40;99.90
27164;DHT22;14685;50.618;7.024;2023-09-12T08:21:25;25.30;99.90
27164;DHT22;14685;50.618;7.024;2023-09-12T08:23:52;25.40;99.90
27164;DHT22;14685;50.618;7.024;2023-09-12T08:26:22;25.40;99.90
27164;DHT22;14685;50.618;7.024;2023-09-12T08:28:49;25.40;99.90
27164;DHT22;14685;50.618;7.024;2023-09-12T08:31:17;25.50;99.90
27164;DHT22;14685;50.618;7.024;2023-09-12T08:33:44;25.40;99.90
27164;DHT22;14685;50.618;7.024;2023-09-12T08:36:11;25.50;99.90
27164;DHT22;14685;50.618;7.024;2023-09-12T08:38:39;25.60;99.90
27164;DHT22;14685;50.618;7.024;2023-09-12T08:41:06;25.80;99.90
27164;DHT22;14685;50.618;7.024;2023-09-12T08:43:33;25.90;99.90
27164;DHT22;14685;50.618;7.024;2023-09-12T08:46:00;25.90;99.90
27164;DHT22;14685;50.618;7.024;2023-09-12T08:48:28;25.90;99.90
27164;DHT22;14685;50.618;7.024;2023-09-12T08:53:24;26.20;99.90
27164;DHT22;14685;50.618;7.024;2023-09-12T08:55:52;26.20;99.90
27164;DHT22;14685;50.618;7.024;2023-09-12T08:58:22;26.20;99.90
27164;DHT22;14685;50.618;7.024;2023-09-12T09:00:49;26.30;99.90
27164;DHT22;14685;50.618;7.024;2023-09-12T09:03:19;26.30;99.90
27164;DHT22;14685;50.618;7.024;2023-09-12T09:05:47;26.30;99.90
27164;DHT22;14685;50.618;7.024;2023-09-12T09:08:16;26.40;99.90
27164;DHT22;14685;50.618;7.024;2023-09-12T09:11:00;26.30;99.90
27164;DHT22;14685;50.618;7.024;2023-09-12T09:13:32;26.40;99.90
27164;DHT22;14685;50.618;7.024;2023-09-12T09:16:16;26.50;99.90
27164;DHT22;14685;50.618;7.024;2023-09-12T09:18:57;26.50;99.90
27164;DHT22;14685;50.618;7.024;2023-09-12T09:21:27;26.60;99.90
27164;DHT22;14685;50.618;7.024;2023-09-12T09:23:55;26.80;99.90
27164;DHT22;14685;50.618;7.024;2023-09-12T09:26:23;26.90;99.90
27164;DHT22;14685;50.618;7.024;2023-09-12T09:29:08;26.90;99.90
27164;DHT22;14685;50.618;7.024;2023-09-12T09:31:40;27.00;99.90
27164;DHT22;14685;50.618;7.024;2023-09-12T09:34:18;27.20;99.90
27164;DHT22;14685;50.618;7.024;2023-09-12T09:36:50;27.50;99.90
27164;DHT22;14685;50.618;7.024;2023-09-12T09:39:21;27.30;99.90
27164;DHT22;14685;50.618;7.024;2023-09-12T09:41:52;27.50;99.90
27164;DHT22;14685;50.618;7.024;2023-09-12T09:44:21;27.60;99.90
27164;DHT22;14685;50.618;7.024;2023-09-12T09:46:55;27.50;99.90
27164;DHT22;14685;50.618;7.024;2023-09-12T09:49:24;27.60;99.90
27164;DHT22;14685;50.618;7.024;2023-09-12T09:51:55;27.60;99.90
27164;DHT22;14685;50.618;7.024;2023-09-12T09:54:25;27.60;99.90
27164;DHT22;14685;50.618;7.024;2023-09-12T09:56:55;27.60;99.90
27164;DHT22;14685;50.618;7.024;2023-09-12T09:59:24;27.70;99.90
27164;DHT22;14685;50.618;7.024;2023-09-12T10:01:58;27.70;99.90
27164;DHT22;14685;50.618;7.024;2023-09-12T10:04:27;27.80;99.90
27164;DHT22;14685;50.618;7.024;2023-09-12T10:06:58;27.90;99.90
27164;DHT22;14685;50.618;7.024;2023-09-12T10:09:26;27.80;99.90
27164;DHT22;14685;50.618;7.024;2023-09-12T10:11:56;27.80;99.90
27164;DHT22;14685;50.618;7.024;2023-09-12T10:14:27;27.80;99.90
27164;DHT22;14685;50.618;7.024;2023-09-12T10:17:01;27.80;99.90
27164;DHT22;14685;50.618;7.024;2023-09-12T10:19:43;27.80;99.90
27164;DHT22;14685;50.618;7.024;2023-09-12T10:22:32;27.80;99.90
27164;DHT22;14685;50.618;7.024;2023-09-12T10:25:01;27.80;99.90
27164;DHT22;14685;50.618;7.024;2023-09-12T10:27:31;27.90;99.90
27164;DHT22;14685;50.618;7.024;2023-09-12T10:30:01;27.80;99.90
27164;DHT22;14685;50.618;7.024;2023-09-12T10:32:28;27.90;99.90
27164;DHT22;14685;50.618;7.024;2023-09-12T10:34:59;28.00;99.90
27164;DHT22;14685;50.618;7.024;2023-09-12T10:37:31;28.00;99.90
27164;DHT22;14685;50.618;7.024;2023-09-12T10:40:01;28.10;99.90
27164;DHT22;14685;50.618;7.024;2023-09-12T10:42:33;28.20;99.90
27164;DHT22;14685;50.618;7.024;2023-09-12T10:45:02;28.30;99.90
27164;DHT22;14685;50.618;7.024;2023-09-12T10:47:38;28.30;99.90
27164;DHT22;14685;50.618;7.024;2023-09-12T10:50:08;28.30;99.90
27164;DHT22;14685;50.618;7.024;2023-09-12T10:55:07;28.40;99.90
27164;DHT22;14685;50.618;7.024;2023-09-12T10:58:05;28.50;99.90
27164;DHT22;14685;50.618;7.024;2023-09-12T11:00:34;28.50;99.90
27164;DHT22;14685;50.618;7.024;2023-09-12T11:05:58;28.50;99.90
27164;DHT22;14685;50.618;7.024;2023-09-12T11:08:26;28.50;99.90
27164;DHT22;14685;50.618;7.024;2023-09-12T11:11:18;28.50;99.90
27164;DHT22;14685;50.618;7.024;2023-09-12T11:14:05;28.50;99.90
27164;DHT22;14685;50.618;7.024;2023-09-12T11:16:33;28.50;99.90
27164;DHT22;14685;50.618;7.024;2023-09-12T11:19:21;28.50;99.90
27164;DHT22;14685;50.618;7.024;2023-09-12T11:21:53;28.60;99.90
27164;DHT22;14685;50.618;7.024;2023-09-12T11:24:22;28.60;99.90
27164;DHT22;14685;50.618;7.024;2023-09-12T11:26:58;28.60;99.90
27164;DHT22;14685;50.618;7.024;2023-09-12T11:29:30;28.60;99.90
27164;DHT22;14685;50.618;7.024;2023-09-12T11:32:02;28.60;99.90
27164;DHT22;14685;50.618;7.024;2023-09-12T11:34:45;28.60;99.90
27164;DHT22;14685;50.618;7.024;2023-09-12T11:37:23;28.60;99.90
27164;DHT22;14685;50.618;7.024;2023-09-12T11:39:50;28.70;99.90
27164;DHT22;14685;50.618;7.024;2023-09-12T11:42:19;28.60;99.90
27164;DHT22;14685;50.618;7.024;2023-09-12T11:44:49;28.70;99.90
27164;DHT22;14685;50.618;7.024;2023-09-12T11:47:18;28.70;99.90
27164;DHT22;14685;50.618;7.024;2023-09-12T11:49:45;28.70;99.90
27164;DHT22;14685;50.618;7.024;2023-09-12T11:52:14;28.70;99.90
27164;DHT22;14685;50.618;7.024;2023-09-12T11:54:44;28.70;99.90
27164;DHT22;14685;50.618;7.024;2023-09-12T11:57:15;28.80;99.90
27164;DHT22;14685;50.618;7.024;2023-09-12T11:59:44;28.80;99.90
27164;DHT22;14685;50.618;7.024;2023-09-12T12:02:19;28.80;99.90
27164;DHT22;14685;50.618;7.024;2023-09-12T12:04:52;28.80;99.90
27164;DHT22;14685;50.618;7.024;2023-09-12T12:07:21;28.70;99.90
27164;DHT22;14685;50.618;7.024;2023-09-12T12:09:47;28.70;99.90
27164;DHT22;14685;50.618;7.024;2023-09-12T12:12:17;28.70;99.90
27164;DHT22;14685;50.618;7.024;2023-09-12T12:14:44;28.60;99.90
27164;DHT22;14685;50.618;7.024;2023-09-12T12:17:12;28.60;99.90
27164;DHT22;14685;50.618;7.024;2023-09-12T12:19:44;28.60;99.90
27164;DHT22;14685;50.618;7.024;2023-09-12T12:22:11;28.50;99.90
27164;DHT22;14685;50.618;7.024;2023-09-12T12:24:40;28.50;99.90
27164;DHT22;14685;50.618;7.024;2023-09-12T12:27:08;28.40;99.90
27164;DHT22;14685;50.618;7.024;2023-09-12T12:29:39;28.50;99.90
27164;DHT22;14685;50.618;7.024;2023-09-12T12:32:06;28.50;99.90
27164;DHT22;14685;50.618;7.024;2023-09-12T12:34:36;28.50;99.90
27164;DHT22;14685;50.618;7.024;2023-09-12T12:37:28;28.40;99.90
27164;DHT22;14685;50.618;7.024;2023-09-12T12:39:58;28.40;99.90
27164;DHT22;14685;50.618;7.024;2023-09-12T12:42:35;28.40;99.90
27164;DHT22;14685;50.618;7.024;2023-09-12T12:45:19;28.40;99.90
27164;DHT22;14685;50.618;7.024;2023-09-12T12:47:50;28.40;99.90
27164;DHT22;14685;50.618;7.024;2023-09-12T12:50:18;28.50;99.90
27164;DHT22;14685;50.618;7.024;2023-09-12T12:52:50;28.40;99.90
27164;DHT22;14685;50.618;7.024;2023-09-12T12:55:20;28.50;99.90
27164;DHT22;14685;50.618;7.024;2023-09-12T12:57:48;28.50;99.90
27164;DHT22;14685;50.618;7.024;2023-09-12T13:03:36;28.60;99.90
27164;DHT22;14685;50.618;7.024;2023-09-12T13:06:05;28.60;99.90
27164;DHT22;14685;50.618;7.024;2023-09-12T13:08:35;28.60;99.90
27164;DHT22;14685;50.618;7.024;2023-09-12T13:11:07;28.50;99.90
27164;DHT22;14685;50.618;7.024;2023-09-12T13:13:44;28.50;99.90
27164;DHT22;14685;50.618;7.024;2023-09-12T13:16:13;28.50;99.90
27164;DHT22;14685;50.618;7.024;2023-09-12T13:18:41;28.50;99.90
27164;DHT22;14685;50.618;7.024;2023-09-12T13:21:08;28.50;99.90
27164;DHT22;14685;50.618;7.024;2023-09-12T13:23:38;28.50;99.90
27164;DHT22;14685;50.618;7.024;2023-09-12T13:26:08;28.50;99.90
27164;DHT22;14685;50.618;7.024;2023-09-12T13:28:36;28.60;99.90
27164;DHT22;14685;50.618;7.024;2023-09-12T13:31:05;28.50;99.90
27164;DHT22;14685;50.618;7.024;2023-09-12T13:33:34;28.60;99.90
27164;DHT22;14685;50.618;7.024;2023-09-12T13:36:04;28.50;99.90
27164;DHT22;14685;50.618;7.024;2023-09-12T13:38:32;28.60;99.90
27164;DHT22;14685;50.618;7.024;2023-09-12T13:41:02;28.50;99.90
27164;DHT22;14685;50.618;7.024;2023-09-12T13:43:29;28.60;99.90
27164;DHT22;14685;50.618;7.024;2023-09-12T13:45:58;28.60;99.90
27164;DHT22;14685;50.618;7.024;2023-09-12T13:48:27;28.50;99.90
27164;DHT22;14685;50.618;7.024;2023-09-12T13:50:56;28.50;99.90
27164;DHT22;14685;50.618;7.024;2023-09-12T13:53:23;28.50;99.90
27164;DHT22;14685;50.618;7.024;2023-09-12T13:55:50;28.50;99.90
27164;DHT22;14685;50.618;7.024;2023-09-12T13:58:25;28.50;99.90
27164;DHT22;14685;50.618;7.024;2023-09-12T14:01:04;28.50;99.90
27164;DHT22;14685;50.618;7.024;2023-09-12T14:03:33;28.50;99.90
27164;DHT22;14685;50.618;7.024;2023-09-12T14:06:02;28.50;99.90
27164;DHT22;14685;50.618;7.024;2023-09-12T14:08:31;28.50;99.90
27164;DHT22;14685;50.618;7.024;2023-09-12T14:10:59;28.50;99.90
27164;DHT22;14685;50.618;7.024;2023-09-12T14:13:27;28.50;99.90
27164;DHT22;14685;50.618;7.024;2023-09-12T14:15:59;28.50;99.90
27164;DHT22;14685;50.618;7.024;2023-09-12T14:18:28;28.50;99.90
27164;DHT22;14685;50.618;7.024;2023-09-12T14:20:57;28.50;99.90
27164;DHT22;14685;50.618;7.024;2023-09-12T14:23:24;28.50;99.90
27164;DHT22;14685;50.618;7.024;2023-09-12T14:25:55;28.50;99.90
27164;DHT22;14685;50.618;7.024;2023-09-12T14:28:22;28.50;99.90
27164;DHT22;14685;50.618;7.024;2023-09-12T14:30:54;28.50;99.90
27164;DHT22;14685;50.618;7.024;2023-09-12T14:33:24;28.50;99.90
27164;DHT22;14685;50.618;7.024;2023-09-12T14:35:53;28.50;99.90
27164;DHT22;14685;50.618;7.024;2023-09-12T14:38:21;28.40;99.90
27164;DHT22;14685;50.618;7.024;2023-09-12T14:40:48;28.40;99.90
27164;DHT22;14685;50.618;7.024;2023-09-12T14:43:16;28.40;99.90
27164;DHT22;14685;50.618;7.024;2023-09-12T14:45:43;28.40;99.90
27164;DHT22;14685;50.618;7.024;2023-09-12T14:48:11;28.40;99.90
27164;DHT22;14685;50.618;7.024;2023-09-12T14:50:38;28.40;99.90
27164;DHT22;14685;50.618;7.024;2023-09-12T14:53:10;28.40;99.90
27164;DHT22;14685;50.618;7.024;2023-09-12T14:55:38;28.40;99.90
27164;DHT22;14685;50.618;7.024;2023-09-12T14:58:05;28.30;99.90
27164;DHT22;14685;50.618;7.024;2023-09-12T15:00:34;28.30;99.90
27164;DHT22;14685;50.618;7.024;2023-09-12T15:03:01;28.20;99.90
27164;DHT22;14685;50.618;7.024;2023-09-12T15:05:28;28.20;99.90
27164;DHT22;14685;50.618;7.024;2023-09-12T15:07:56;28.20;99.90
27164;DHT22;14685;50.618;7.024;2023-09-12T15:10:25;28.20;99.90
27164;DHT22;14685;50.618;7.024;2023-09-12T15:12:52;28.10;99.90
27164;DHT22;14685;50.618;7.024;2023-09-12T15:15:21;28.10;99.90
27164;DHT22;14685;50.618;7.024;2023-09-12T15:17:50;28.00;99.90
27164;DHT22;14685;50.618;7.024;2023-09-12T15:20:17;28.00;99.90
27164;DHT22;14685;50.618;7.024;2023-09-12T15:22:47;28.00;99.90
27164;DHT22;14685;50.618;7.024;2023-09-12T15:25:14;28.00;99.90
27164;DHT22;14685;50.618;7.024;2023-09-12T15:27:44;27.90;99.90
27164;DHT22;14685;50.618;7.024;2023-09-12T15:30:12;27.90;99.90
27164;DHT22;14685;50.618;7.024;2023-09-12T15:32:39;27.90;99.90
27164;DHT22;14685;50.618;7.024;2023-09-12T15:35:07;27.80;99.90
27164;DHT22;14685;50.618;7.024;2023-09-12T15:37:35;27.80;99.90
27164;DHT22;14685;50.618;7.024;2023-09-12T15:40:02;27.80;99.90
27164;DHT22;14685;50.618;7.024;2023-09-12T15:42:30;27.80;99.90
27164;DHT22;14685;50.618;7.024;2023-09-12T15:45:04;27.80;99.90
27164;DHT22;14685;50.618;7.024;2023-09-12T15:47:36;27.80;99.90
27164;DHT22;14685;50.618;7.024;2023-09-12T15:50:05;27.80;99.90
27164;DHT22;14685;50.618;7.024;2023-09-12T15:52:33;27.80;99.90
27164;DHT22;14685;50.618;7.024;2023-09-12T15:55:06;27.70;99.90
27164;DHT22;14685;50.618;7.024;2023-09-12T15:57:34;27.70;99.90
27164;DHT22;14685;50.618;7.024;2023-09-12T16:00:06;27.70;99.90
27164;DHT22;14685;50.618;7.024;2023-09-12T16:02:34;27.70;99.90
27164;DHT22;14685;50.618;7.024;2023-09-12T16:05:02;27.60;99.90
27164;DHT22;14685;50.618;7.024;2023-09-12T16:07:31;27.60;99.90
27164;DHT22;14685;50.618;7.024;2023-09-12T16:09:58;27.60;99.90
27164;DHT22;14685;50.618;7.024;2023-09-12T16:12:29;27.60;99.90
27164;DHT22;14685;50.618;7.024;2023-09-12T16:14:56;27.50;99.90
27164;DHT22;14685;50.618;7.024;2023-09-12T16:17:24;27.50;99.90
27164;DHT22;14685;50.618;7.024;2023-09-12T16:19:52;27.50;99.90
27164;DHT22;14685;50.618;7.024;2023-09-12T16:22:22;27.50;99.90
27164;DHT22;14685;50.618;7.024;2023-09-12T16:24:52;27.50;99.90
27164;DHT22;14685;50.618;7.024;2023-09-12T16:27:19;27.50;99.90
27164;DHT22;14685;50.618;7.024;2023-09-12T16:29:50;27.40;99.90
27164;DHT22;14685;50.618;7.024;2023-09-12T16:32:18;27.40;99.90
27164;DHT22;14685;50.618;7.024;2023-09-12T16:34:45;27.40;99.90
27164;DHT22;14685;50.618;7.024;2023-09-12T16:37:12;27.30;99.90
27164;DHT22;14685;50.618;7.024;2023-09-12T16:39:38;27.40;99.90
27164;DHT22;14685;50.618;7.024;2023-09-12T16:42:09;27.30;99.90
27164;DHT22;14685;50.618;7.024;2023-09-12T16:44:35;27.30;99.90
27164;DHT22;14685;50.618;7.024;2023-09-12T16:47:02;27.20;99.90
27164;DHT22;14685;50.618;7.024;2023-09-12T16:49:31;27.10;99.90
27164;DHT22;14685;50.618;7.024;2023-09-12T16:52:00;27.10;99.90
27164;DHT22;14685;50.618;7.024;2023-09-12T16:54:28;27.00;99.90
27164;DHT22;14685;50.618;7.024;2023-09-12T16:56:58;27.00;99.90
27164;DHT22;14685;50.618;7.024;2023-09-12T16:59:26;27.00;99.90